sensor_id;sensor_type;location;lat;lon;timestamp;P1;durP1;ratioP1;P2;durP2;ratioP2
17380;SDS011;8808;52.478;13.378;2023-07-24T00:02:08;5.15;;;2.28;;
17380;SDS011;8808;52.478;13.378;2023-07-24T00:04:35;4.18;;;2.17;;
17380;SDS011;8808;52.478;13.378;2023-07-24T00:07:02;4.25;;;2.13;;
17380;SDS011;8808;52.478;13.378;2023-07-24T00:09:29;3.73;;;2.03;;
17380;SDS011;8808;52.478;13.378;2023-07-24T00:11:56;3.97;;;1.98;;
17380;SDS011;8808;52.478;13.378;2023-07-24T00:14:23;3.88;;;2.28;;
17380;SDS011;8808;52.478;13.378;2023-07-24T00:16:50;3.42;;;1.75;;
17380;SDS011;8808;52.478;13.378;2023-07-24T00:19:18;3.15;;;2.00;;
17380;SDS011;8808;52.478;13.378;2023-07-24T00:21:45;4.80;;;2.27;;
17380;SDS011;8808;52.478;13.378;2023-07-24T00:24:12;5.77;;;2.00;;
17380;SDS011;8808;52.478;13.378;2023-07-24T00:26:39;3.55;;;2.08;;
17380;SDS011;8808;52.478;13.378;2023-07-24T00:29:06;4.55;;;1.88;;
17380;SDS011;8808;52.478;13.378;2023-07-24T00:31:33;3.90;;;2.10;;
17380;SDS011;8808;52.478;13.378;2023-07-24T00:34:00;2.97;;;1.70;;
17380;SDS011;8808;52.478;13.378;2023-07-24T00:36:28;3.58;;;1.92;;
17380;SDS011;8808;52.478;13.378;2023-07-24T00:38:55;2.90;;;1.80;;
17380;SDS011;8808;52.478;13.378;2023-07-24T00:41:22;3.47;;;2.00;;
17380;SDS011;8808;52.478;13.378;2023-07-24T00:43:49;5.20;;;2.00;;
17380;SDS011;8808;52.478;13.378;2023-07-24T00:46:15;5.00;;;2.05;;
17380;SDS011;8808;52.478;13.378;2023-07-24T00:48:43;3.90;;;2.57;;
17380;SDS011;8808;52.478;13.378;2023-07-24T00:51:10;6.33;;;2.03;;
17380;SDS011;8808;52.478;13.378;2023-07-24T00:53:38;7.63;;;2.10;;
17380;SDS011;8808;52.478;13.378;2023-07-24T00:56:05;4.63;;;2.00;;
17380;SDS011;8808;52.478;13.378;2023-07-24T00:58:34;3.42;;;2.28;;
17380;SDS011;8808;52.478;13.378;2023-07-24T01:03:39;4.65;;;2.30;;
17380;SDS011;8808;52.478;13.378;2023-07-24T01:06:08;4.13;;;2.40;;
17380;SDS011;8808;52.478;13.378;2023-07-24T01:08:36;3.97;;;2.27;;
17380;SDS011;8808;52.478;13.378;2023-07-24T01:11:07;4.32;;;2.20;;
17380;SDS011;8808;52.478;13.378;2023-07-24T01:13:40;4.38;;;2.38;;
17380;SDS011;8808;52.478;13.378;2023-07-24T01:16:11;4.80;;;2.30;;
17380;SDS011;8808;52.478;13.378;2023-07-24T01:18:40;5.40;;;2.10;;
17380;SDS011;8808;52.478;13.378;2023-07-24T01:21:09;3.30;;;1.97;;
17380;SDS011;8808;52.478;13.378;2023-07-24T01:23:44;2.97;;;1.97;;
17380;SDS011;8808;52.478;13.378;2023-07-24T01:26:19;3.57;;;2.10;;
17380;SDS011;8808;52.478;13.378;2023-07-24T01:28:49;4.03;;;1.83;;
17380;SDS011;8808;52.478;13.378;2023-07-24T01:31:15;5.13;;;2.30;;
17380;SDS011;8808;52.478;13.378;2023-07-24T01:33:42;3.53;;;1.90;;
17380;SDS011;8808;52.478;13.378;2023-07-24T01:36:10;4.27;;;1.97;;
17380;SDS011;8808;52.478;13.378;2023-07-24T01:38:39;3.83;;;2.10;;
17380;SDS011;8808;52.478;13.378;2023-07-24T01:41:07;3.63;;;1.90;;
17380;SDS011;8808;52.478;13.378;2023-07-24T01:43:36;3.33;;;1.98;;
17380;SDS011;8808;52.478;13.378;2023-07-24T01:46:03;3.63;;;1.90;;
17380;SDS011;8808;52.478;13.378;2023-07-24T01:48:30;3.33;;;2.17;;
17380;SDS011;8808;52.478;13.378;2023-07-24T01:50:57;3.37;;;2.00;;
17380;SDS011;8808;52.478;13.378;2023-07-24T01:53:24;3.28;;;2.10;;
17380;SDS011;8808;52.478;13.378;2023-07-24T01:55:51;6.57;;;2.67;;
17380;SDS011;8808;52.478;13.378;2023-07-24T01:58:17;3.53;;;2.00;;
17380;SDS011;8808;52.478;13.378;2023-07-24T02:00:46;3.03;;;1.93;;
17380;SDS011;8808;52.478;13.378;2023-07-24T02:03:13;4.63;;;2.17;;
17380;SDS011;8808;52.478;13.378;2023-07-24T02:05:40;4.60;;;1.97;;
17380;SDS011;8808;52.478;13.378;2023-07-24T02:08:07;6.87;;;2.23;;
17380;SDS011;8808;52.478;13.378;2023-07-24T02:10:36;3.95;;;2.13;;
17380;SDS011;8808;52.478;13.378;2023-07-24T02:13:04;5.20;;;2.40;;
17380;SDS011;8808;52.478;13.378;2023-07-24T02:15:32;5.35;;;2.38;;
17380;SDS011;8808;52.478;13.378;2023-07-24T02:18:00;3.80;;;2.20;;
17380;SDS011;8808;52.478;13.378;2023-07-24T02:20:27;4.15;;;2.28;;
17380;SDS011;8808;52.478;13.378;2023-07-24T02:22:54;4.13;;;2.20;;
17380;SDS011;8808;52.478;13.378;2023-07-24T02:25:22;3.88;;;2.00;;
17380;SDS011;8808;52.478;13.378;2023-07-24T02:27:49;4.90;;;2.28;;
17380;SDS011;8808;52.478;13.378;2023-07-24T02:30:16;4.22;;;2.17;;
17380;SDS011;8808;52.478;13.378;2023-07-24T02:32:43;3.40;;;1.95;;
17380;SDS011;8808;52.478;13.378;2023-07-24T02:35:11;2.20;;;1.60;;
17380;SDS011;8808;52.478;13.378;2023-07-24T02:37:38;4.17;;;2.13;;
17380;SDS011;8808;52.478;13.378;2023-07-24T02:40:05;3.43;;;2.20;;
17380;SDS011;8808;52.478;13.378;2023-07-24T02:42:33;3.40;;;1.97;;
17380;SDS011;8808;52.478;13.378;2023-07-24T02:45:00;3.45;;;2.17;;
17380;SDS011;8808;52.478;13.378;2023-07-24T02:47:27;3.72;;;1.73;;
17380;SDS011;8808;52.478;13.378;2023-07-24T02:49:54;3.93;;;2.07;;
17380;SDS011;8808;52.478;13.378;2023-07-24T02:52:23;2.95;;;1.75;;
17380;SDS011;8808;52.478;13.378;2023-07-24T02:54:50;2.57;;;1.50;;
17380;SDS011;8808;52.478;13.378;2023-07-24T02:57:17;3.33;;;1.40;;
17380;SDS011;8808;52.478;13.378;2023-07-24T02:59:44;2.97;;;1.70;;
17380;SDS011;8808;52.478;13.378;2023-07-24T03:02:11;3.58;;;1.67;;
17380;SDS011;8808;52.478;13.378;2023-07-24T03:04:38;3.03;;;1.70;;
17380;SDS011;8808;52.478;13.378;2023-07-24T03:07:05;3.97;;;1.80;;
17380;SDS011;8808;52.478;13.378;2023-07-24T03:09:33;1.90;;;1.38;;
17380;SDS011;8808;52.478;13.378;2023-07-24T03:12:00;3.40;;;1.30;;
17380;SDS011;8808;52.478;13.378;2023-07-24T03:14:27;3.50;;;1.90;;
17380;SDS011;8808;52.478;13.378;2023-07-24T03:16:54;4.68;;;1.70;;
17380;SDS011;8808;52.478;13.378;2023-07-24T03:19:21;2.80;;;1.58;;
17380;SDS011;8808;52.478;13.378;2023-07-24T03:21:48;2.80;;;1.70;;
17380;SDS011;8808;52.478;13.378;2023-07-24T03:24:15;2.35;;;1.42;;
17380;SDS011;8808;52.478;13.378;2023-07-24T03:26:44;2.90;;;1.50;;
17380;SDS011;8808;52.478;13.378;2023-07-24T03:29:11;7.43;;;1.60;;
17380;SDS011;8808;52.478;13.378;2023-07-24T03:31:38;5.10;;;1.67;;
17380;SDS011;8808;52.478;13.378;2023-07-24T03:34:05;3.40;;;1.73;;
17380;SDS011;8808;52.478;13.378;2023-07-24T03:36:32;3.03;;;1.50;;
17380;SDS011;8808;52.478;13.378;2023-07-24T03:39:00;4.32;;;1.40;;
17380;SDS011;8808;52.478;13.378;2023-07-24T03:41:27;2.33;;;1.30;;
17380;SDS011;8808;52.478;13.378;2023-07-24T03:43:56;2.00;;;1.40;;
17380;SDS011;8808;52.478;13.378;2023-07-24T03:46:23;5.65;;;1.45;;
17380;SDS011;8808;52.478;13.378;2023-07-24T03:48:50;2.20;;;1.23;;
17380;SDS011;8808;52.478;13.378;2023-07-24T03:51:16;3.67;;;1.57;;
17380;SDS011;8808;52.478;13.378;2023-07-24T03:53:44;2.83;;;1.60;;
17380;SDS011;8808;52.478;13.378;2023-07-24T03:56:10;3.67;;;1.50;;
17380;SDS011;8808;52.478;13.378;2023-07-24T03:58:37;3.30;;;1.70;;
17380;SDS011;8808;52.478;13.378;2023-07-24T04:01:06;5.23;;;1.50;;
17380;SDS011;8808;52.478;13.378;2023-07-24T04:03:34;1.87;;;1.33;;
17380;SDS011;8808;52.478;13.378;2023-07-24T04:06:01;5.67;;;1.40;;
17380;SDS011;8808;52.478;13.378;2023-07-24T04:08:28;4.47;;;1.80;;
17380;SDS011;8808;52.478;13.378;2023-07-24T04:10:55;2.75;;;1.33;;
17380;SDS011;8808;52.478;13.378;2023-07-24T04:13:22;2.17;;;1.27;;
17380;SDS011;8808;52.478;13.378;2023-07-24T04:15:49;2.30;;;1.43;;
17380;SDS011;8808;52.478;13.378;2023-07-24T04:18:17;4.13;;;1.65;;
17380;SDS011;8808;52.478;13.378;2023-07-24T04:20:44;2.40;;;1.60;;
17380;SDS011;8808;52.478;13.378;2023-07-24T04:23:11;2.60;;;1.60;;
17380;SDS011;8808;52.478;13.378;2023-07-24T04:25:38;3.42;;;1.75;;
17380;SDS011;8808;52.478;13.378;2023-07-24T04:28:05;4.15;;;1.42;;
17380;SDS011;8808;52.478;13.378;2023-07-24T04:30:32;3.30;;;1.47;;
17380;SDS011;8808;52.478;13.378;2023-07-24T04:32:59;3.80;;;1.55;;
17380;SDS011;8808;52.478;13.378;2023-07-24T04:35:27;3.55;;;1.40;;
17380;SDS011;8808;52.478;13.378;2023-07-24T04:37:54;4.28;;;1.38;;
17380;SDS011;8808;52.478;13.378;2023-07-24T04:40:22;1.73;;;1.25;;
17380;SDS011;8808;52.478;13.378;2023-07-24T04:42:49;1.70;;;1.10;;
17380;SDS011;8808;52.478;13.378;2023-07-24T04:45:16;2.50;;;1.30;;
17380;SDS011;8808;52.478;13.378;2023-07-24T04:47:43;3.95;;;1.38;;
17380;SDS011;8808;52.478;13.378;2023-07-24T04:50:10;1.73;;;1.08;;
17380;SDS011;8808;52.478;13.378;2023-07-24T04:52:39;3.47;;;1.02;;
17380;SDS011;8808;52.478;13.378;2023-07-24T04:55:06;2.35;;;1.25;;
17380;SDS011;8808;52.478;13.378;2023-07-24T04:57:33;2.03;;;1.20;;
17380;SDS011;8808;52.478;13.378;2023-07-24T05:00:00;2.55;;;1.33;;
17380;SDS011;8808;52.478;13.378;2023-07-24T05:02:27;3.72;;;1.40;;
17380;SDS011;8808;52.478;13.378;2023-07-24T05:04:54;2.25;;;1.63;;
17380;SDS011;8808;52.478;13.378;2023-07-24T05:07:21;3.83;;;1.20;;
17380;SDS011;8808;52.478;13.378;2023-07-24T05:09:49;2.20;;;1.40;;
17380;SDS011;8808;52.478;13.378;2023-07-24T05:12:16;5.85;;;1.30;;
17380;SDS011;8808;52.478;13.378;2023-07-24T05:14:43;1.88;;;1.02;;
17380;SDS011;8808;52.478;13.378;2023-07-24T05:17:10;1.90;;;1.10;;
17380;SDS011;8808;52.478;13.378;2023-07-24T05:19:37;2.22;;;1.20;;
17380;SDS011;8808;52.478;13.378;2023-07-24T05:22:04;3.42;;;1.20;;
17380;SDS011;8808;52.478;13.378;2023-07-24T05:24:31;3.28;;;1.00;;
17380;SDS011;8808;52.478;13.378;2023-07-24T05:26:59;1.63;;;1.00;;
17380;SDS011;8808;52.478;13.378;2023-07-24T05:29:26;0.90;;;0.80;;
17380;SDS011;8808;52.478;13.378;2023-07-24T05:31:53;1.70;;;0.93;;
17380;SDS011;8808;52.478;13.378;2023-07-24T05:34:19;3.47;;;1.10;;
17380;SDS011;8808;52.478;13.378;2023-07-24T05:36:46;2.53;;;1.00;;
17380;SDS011;8808;52.478;13.378;2023-07-24T05:39:13;1.25;;;0.90;;
17380;SDS011;8808;52.478;13.378;2023-07-24T05:41:40;2.42;;;1.20;;
17380;SDS011;8808;52.478;13.378;2023-07-24T05:44:09;1.70;;;1.00;;
17380;SDS011;8808;52.478;13.378;2023-07-24T05:46:35;1.73;;;1.00;;
17380;SDS011;8808;52.478;13.378;2023-07-24T05:49:02;1.00;;;0.82;;
17380;SDS011;8808;52.478;13.378;2023-07-24T05:51:30;1.42;;;0.98;;
17380;SDS011;8808;52.478;13.378;2023-07-24T05:53:56;1.45;;;1.10;;
17380;SDS011;8808;52.478;13.378;2023-07-24T05:56:24;1.40;;;1.10;;
17380;SDS011;8808;52.478;13.378;2023-07-24T05:58:50;1.25;;;1.10;;
17380;SDS011;8808;52.478;13.378;2023-07-24T06:01:19;2.13;;;1.00;;
17380;SDS011;8808;52.478;13.378;2023-07-24T06:03:46;1.05;;;0.90;;
17380;SDS011;8808;52.478;13.378;2023-07-24T06:06:13;1.65;;;1.20;;
17380;SDS011;8808;52.478;13.378;2023-07-24T06:08:40;1.63;;;1.10;;
17380;SDS011;8808;52.478;13.378;2023-07-24T06:11:07;2.25;;;1.10;;
17380;SDS011;8808;52.478;13.378;2023-07-24T06:13:35;1.70;;;1.13;;
17380;SDS011;8808;52.478;13.378;2023-07-24T06:16:02;2.33;;;1.30;;
17380;SDS011;8808;52.478;13.378;2023-07-24T06:18:31;2.28;;;1.42;;
17380;SDS011;8808;52.478;13.378;2023-07-24T06:20:58;4.32;;;1.40;;
17380;SDS011;8808;52.478;13.378;2023-07-24T06:23:24;3.97;;;1.50;;
17380;SDS011;8808;52.478;13.378;2023-07-24T06:25:51;2.40;;;1.33;;
17380;SDS011;8808;52.478;13.378;2023-07-24T06:28:18;2.95;;;1.45;;
17380;SDS011;8808;52.478;13.378;2023-07-24T06:30:45;1.70;;;1.38;;
17380;SDS011;8808;52.478;13.378;2023-07-24T06:33:12;2.28;;;1.63;;
17380;SDS011;8808;52.478;13.378;2023-07-24T06:35:41;3.88;;;1.58;;
17380;SDS011;8808;52.478;13.378;2023-07-24T06:38:08;3.30;;;1.90;;
17380;SDS011;8808;52.478;13.378;2023-07-24T06:40:34;3.53;;;1.88;;
17380;SDS011;8808;52.478;13.378;2023-07-24T06:43:02;2.25;;;1.30;;
17380;SDS011;8808;52.478;13.378;2023-07-24T06:45:29;3.40;;;1.67;;
17380;SDS011;8808;52.478;13.378;2023-07-24T06:47:56;1.42;;;1.23;;
17380;SDS011;8808;52.478;13.378;2023-07-24T06:50:23;3.92;;;1.42;;
17380;SDS011;8808;52.478;13.378;2023-07-24T06:52:51;2.85;;;1.50;;
17380;SDS011;8808;52.478;13.378;2023-07-24T06:55:18;2.13;;;1.38;;
17380;SDS011;8808;52.478;13.378;2023-07-24T06:57:46;2.53;;;1.70;;
17380;SDS011;8808;52.478;13.378;2023-07-24T07:00:13;2.38;;;1.35;;
17380;SDS011;8808;52.478;13.378;2023-07-24T07:02:40;2.15;;;1.63;;
17380;SDS011;8808;52.478;13.378;2023-07-24T07:05:07;2.05;;;1.50;;
17380;SDS011;8808;52.478;13.378;2023-07-24T07:07:34;2.85;;;1.80;;
17380;SDS011;8808;52.478;13.378;2023-07-24T07:10:03;2.72;;;1.77;;
17380;SDS011;8808;52.478;13.378;2023-07-24T07:12:30;2.17;;;1.67;;
17380;SDS011;8808;52.478;13.378;2023-07-24T07:14:58;2.33;;;1.70;;
17380;SDS011;8808;52.478;13.378;2023-07-24T07:17:24;3.25;;;1.95;;
17380;SDS011;8808;52.478;13.378;2023-07-24T07:19:51;2.47;;;1.60;;
17380;SDS011;8808;52.478;13.378;2023-07-24T07:22:21;3.10;;;1.88;;
17380;SDS011;8808;52.478;13.378;2023-07-24T07:24:48;2.03;;;1.70;;
17380;SDS011;8808;52.478;13.378;2023-07-24T07:27:17;2.50;;;1.80;;
17380;SDS011;8808;52.478;13.378;2023-07-24T07:29:43;1.48;;;1.10;;
17380;SDS011;8808;52.478;13.378;2023-07-24T07:32:10;2.45;;;1.60;;
17380;SDS011;8808;52.478;13.378;2023-07-24T07:34:37;2.88;;;1.80;;
17380;SDS011;8808;52.478;13.378;2023-07-24T07:37:04;2.55;;;1.60;;
17380;SDS011;8808;52.478;13.378;2023-07-24T07:39:31;2.40;;;1.52;;
17380;SDS011;8808;52.478;13.378;2023-07-24T07:41:59;3.85;;;1.50;;
17380;SDS011;8808;52.478;13.378;2023-07-24T07:44:27;2.85;;;1.63;;
17380;SDS011;8808;52.478;13.378;2023-07-24T07:46:54;2.42;;;1.40;;
17380;SDS011;8808;52.478;13.378;2023-07-24T07:49:21;3.58;;;2.00;;
17380;SDS011;8808;52.478;13.378;2023-07-24T07:51:48;1.90;;;1.48;;
17380;SDS011;8808;52.478;13.378;2023-07-24T07:54:15;3.50;;;1.63;;
17380;SDS011;8808;52.478;13.378;2023-07-24T07:56:42;4.63;;;1.60;;
17380;SDS011;8808;52.478;13.378;2023-07-24T07:59:09;3.03;;;1.67;;
17380;SDS011;8808;52.478;13.378;2023-07-24T08:01:37;2.35;;;1.67;;
17380;SDS011;8808;52.478;13.378;2023-07-24T08:04:05;3.50;;;1.80;;
17380;SDS011;8808;52.478;13.378;2023-07-24T08:06:32;1.80;;;1.30;;
17380;SDS011;8808;52.478;13.378;2023-07-24T08:08:59;2.75;;;1.60;;
17380;SDS011;8808;52.478;13.378;2023-07-24T08:11:26;2.47;;;1.75;;
17380;SDS011;8808;52.478;13.378;2023-07-24T08:13:53;2.65;;;1.77;;
17380;SDS011;8808;52.478;13.378;2023-07-24T08:16:20;2.70;;;1.45;;
17380;SDS011;8808;52.478;13.378;2023-07-24T08:18:48;2.70;;;1.50;;
17380;SDS011;8808;52.478;13.378;2023-07-24T08:21:16;1.55;;;1.38;;
17380;SDS011;8808;52.478;13.378;2023-07-24T08:23:43;1.70;;;1.15;;
17380;SDS011;8808;52.478;13.378;2023-07-24T08:26:10;1.75;;;1.10;;
17380;SDS011;8808;52.478;13.378;2023-07-24T08:28:36;2.25;;;1.40;;
17380;SDS011;8808;52.478;13.378;2023-07-24T08:31:07;2.70;;;1.30;;
17380;SDS011;8808;52.478;13.378;2023-07-24T08:33:34;2.05;;;1.15;;
17380;SDS011;8808;52.478;13.378;2023-07-24T08:36:03;1.50;;;1.27;;
17380;SDS011;8808;52.478;13.378;2023-07-24T08:38:31;2.70;;;1.38;;
17380;SDS011;8808;52.478;13.378;2023-07-24T08:41:01;2.25;;;1.50;;
17380;SDS011;8808;52.478;13.378;2023-07-24T08:43:29;1.98;;;1.20;;
17380;SDS011;8808;52.478;13.378;2023-07-24T08:45:57;2.53;;;1.45;;
17380;SDS011;8808;52.478;13.378;2023-07-24T08:48:25;1.73;;;1.10;;
17380;SDS011;8808;52.478;13.378;2023-07-24T08:50:55;1.52;;;1.30;;
17380;SDS011;8808;52.478;13.378;2023-07-24T08:53:25;2.95;;;1.23;;
17380;SDS011;8808;52.478;13.378;2023-07-24T08:55:53;1.55;;;1.20;;
17380;SDS011;8808;52.478;13.378;2023-07-24T08:58:20;2.90;;;1.30;;
17380;SDS011;8808;52.478;13.378;2023-07-24T09:00:47;3.03;;;1.38;;
17380;SDS011;8808;52.478;13.378;2023-07-24T09:03:16;1.98;;;1.10;;
17380;SDS011;8808;52.478;13.378;2023-07-24T09:05:43;3.67;;;1.40;;
17380;SDS011;8808;52.478;13.378;2023-07-24T09:08:10;2.00;;;1.30;;
17380;SDS011;8808;52.478;13.378;2023-07-24T09:10:38;2.10;;;1.27;;
17380;SDS011;8808;52.478;13.378;2023-07-24T09:13:05;2.25;;;1.40;;
17380;SDS011;8808;52.478;13.378;2023-07-24T09:15:39;2.58;;;1.40;;
17380;SDS011;8808;52.478;13.378;2023-07-24T09:18:06;2.63;;;1.38;;
17380;SDS011;8808;52.478;13.378;2023-07-24T09:20:37;4.25;;;1.45;;
17380;SDS011;8808;52.478;13.378;2023-07-24T09:23:05;1.35;;;1.10;;
17380;SDS011;8808;52.478;13.378;2023-07-24T09:25:33;1.70;;;1.30;;
17380;SDS011;8808;52.478;13.378;2023-07-24T09:28:08;1.60;;;1.30;;
17380;SDS011;8808;52.478;13.378;2023-07-24T09:30:36;3.28;;;1.40;;
17380;SDS011;8808;52.478;13.378;2023-07-24T09:33:03;2.28;;;1.33;;
17380;SDS011;8808;52.478;13.378;2023-07-24T09:35:30;1.67;;;1.23;;
17380;SDS011;8808;52.478;13.378;2023-07-24T09:38:04;1.60;;;1.23;;
17380;SDS011;8808;52.478;13.378;2023-07-24T09:40:39;3.13;;;1.60;;
17380;SDS011;8808;52.478;13.378;2023-07-24T09:43:24;2.03;;;1.30;;
17380;SDS011;8808;52.478;13.378;2023-07-24T09:45:52;3.42;;;1.40;;
17380;SDS011;8808;52.478;13.378;2023-07-24T09:48:20;2.15;;;1.20;;
17380;SDS011;8808;52.478;13.378;2023-07-24T09:50:48;1.20;;;1.10;;
17380;SDS011;8808;52.478;13.378;2023-07-24T09:53:20;4.88;;;1.50;;
17380;SDS011;8808;52.478;13.378;2023-07-24T09:55:51;3.13;;;1.23;;
17380;SDS011;8808;52.478;13.378;2023-07-24T09:58:23;4.20;;;1.70;;
17380;SDS011;8808;52.478;13.378;2023-07-24T10:00:51;2.47;;;1.58;;
17380;SDS011;8808;52.478;13.378;2023-07-24T10:03:18;2.10;;;1.60;;
17380;SDS011;8808;52.478;13.378;2023-07-24T10:05:46;3.78;;;1.45;;
17380;SDS011;8808;52.478;13.378;2023-07-24T10:08:14;1.92;;;1.55;;
17380;SDS011;8808;52.478;13.378;2023-07-24T10:10:41;4.85;;;1.77;;
17380;SDS011;8808;52.478;13.378;2023-07-24T10:13:09;3.10;;;1.67;;
17380;SDS011;8808;52.478;13.378;2023-07-24T10:15:41;3.22;;;1.52;;
17380;SDS011;8808;52.478;13.378;2023-07-24T10:18:09;3.10;;;1.83;;
17380;SDS011;8808;52.478;13.378;2023-07-24T10:20:37;5.05;;;1.80;;
17380;SDS011;8808;52.478;13.378;2023-07-24T10:23:05;4.97;;;1.90;;
17380;SDS011;8808;52.478;13.378;2023-07-24T10:25:33;4.13;;;1.75;;
17380;SDS011;8808;52.478;13.378;2023-07-24T10:28:02;2.17;;;1.50;;
17380;SDS011;8808;52.478;13.378;2023-07-24T10:30:32;2.90;;;2.00;;
17380;SDS011;8808;52.478;13.378;2023-07-24T10:33:05;3.63;;;2.20;;
17380;SDS011;8808;52.478;13.378;2023-07-24T10:35:37;5.82;;;2.40;;
17380;SDS011;8808;52.478;13.378;2023-07-24T10:38:04;4.07;;;2.20;;
17380;SDS011;8808;52.478;13.378;2023-07-24T10:40:32;4.50;;;2.22;;
17380;SDS011;8808;52.478;13.378;2023-07-24T10:43:00;3.33;;;2.10;;
17380;SDS011;8808;52.478;13.378;2023-07-24T10:45:40;5.20;;;1.70;;
17380;SDS011;8808;52.478;13.378;2023-07-24T10:48:10;3.65;;;1.90;;
17380;SDS011;8808;52.478;13.378;2023-07-24T10:50:38;5.10;;;2.30;;
17380;SDS011;8808;52.478;13.378;2023-07-24T10:53:06;4.63;;;2.15;;
17380;SDS011;8808;52.478;13.378;2023-07-24T10:55:33;10.18;;;2.38;;
17380;SDS011;8808;52.478;13.378;2023-07-24T10:57:59;3.88;;;2.10;;
17380;SDS011;8808;52.478;13.378;2023-07-24T11:00:26;4.43;;;2.33;;
17380;SDS011;8808;52.478;13.378;2023-07-24T11:02:54;4.18;;;2.00;;
17380;SDS011;8808;52.478;13.378;2023-07-24T11:05:23;3.60;;;2.00;;
17380;SDS011;8808;52.478;13.378;2023-07-24T11:07:51;5.63;;;2.47;;
17380;SDS011;8808;52.478;13.378;2023-07-24T11:10:18;4.50;;;2.30;;
17380;SDS011;8808;52.478;13.378;2023-07-24T11:12:46;4.65;;;2.40;;
17380;SDS011;8808;52.478;13.378;2023-07-24T11:15:14;6.70;;;2.20;;
17380;SDS011;8808;52.478;13.378;2023-07-24T11:17:41;6.47;;;2.33;;
17380;SDS011;8808;52.478;13.378;2023-07-24T11:20:09;6.68;;;2.22;;
17380;SDS011;8808;52.478;13.378;2023-07-24T11:22:40;4.03;;;2.50;;
17380;SDS011;8808;52.478;13.378;2023-07-24T11:25:08;5.93;;;2.05;;
17380;SDS011;8808;52.478;13.378;2023-07-24T11:27:39;5.40;;;2.65;;
17380;SDS011;8808;52.478;13.378;2023-07-24T11:30:09;5.13;;;2.58;;
17380;SDS011;8808;52.478;13.378;2023-07-24T11:32:37;7.07;;;2.65;;
17380;SDS011;8808;52.478;13.378;2023-07-24T11:35:05;5.00;;;2.45;;
17380;SDS011;8808;52.478;13.378;2023-07-24T11:37:33;4.32;;;2.10;;
17380;SDS011;8808;52.478;13.378;2023-07-24T11:40:02;8.13;;;2.40;;
17380;SDS011;8808;52.478;13.378;2023-07-24T11:42:36;4.15;;;2.25;;
17380;SDS011;8808;52.478;13.378;2023-07-24T11:45:04;7.72;;;2.60;;
17380;SDS011;8808;52.478;13.378;2023-07-24T11:47:44;4.60;;;2.85;;
17380;SDS011;8808;52.478;13.378;2023-07-24T11:50:12;5.00;;;2.70;;
17380;SDS011;8808;52.478;13.378;2023-07-24T11:52:39;5.70;;;3.22;;
17380;SDS011;8808;52.478;13.378;2023-07-24T11:55:11;6.15;;;2.97;;
17380;SDS011;8808;52.478;13.378;2023-07-24T11:57:38;4.63;;;2.50;;
17380;SDS011;8808;52.478;13.378;2023-07-24T12:00:05;4.65;;;2.75;;
17380;SDS011;8808;52.478;13.378;2023-07-24T12:02:43;2.80;;;1.92;;
17380;SDS011;8808;52.478;13.378;2023-07-24T12:05:10;6.80;;;3.08;;
17380;SDS011;8808;52.478;13.378;2023-07-24T12:07:37;5.53;;;2.75;;
17380;SDS011;8808;52.478;13.378;2023-07-24T12:10:05;6.10;;;2.95;;
17380;SDS011;8808;52.478;13.378;2023-07-24T12:12:38;6.50;;;2.80;;
17380;SDS011;8808;52.478;13.378;2023-07-24T12:15:07;4.15;;;2.40;;
17380;SDS011;8808;52.478;13.378;2023-07-24T12:17:35;5.35;;;2.50;;
17380;SDS011;8808;52.478;13.378;2023-07-24T12:20:02;6.50;;;2.83;;
17380;SDS011;8808;52.478;13.378;2023-07-24T12:22:31;6.72;;;2.70;;
17380;SDS011;8808;52.478;13.378;2023-07-24T12:24:58;4.90;;;2.03;;
17380;SDS011;8808;52.478;13.378;2023-07-24T12:27:25;6.53;;;1.95;;
17380;SDS011;8808;52.478;13.378;2023-07-24T12:29:53;3.60;;;2.17;;
17380;SDS011;8808;52.478;13.378;2023-07-24T12:32:20;3.90;;;2.08;;
17380;SDS011;8808;52.478;13.378;2023-07-24T12:34:48;4.03;;;2.30;;
17380;SDS011;8808;52.478;13.378;2023-07-24T12:37:16;6.40;;;2.67;;
17380;SDS011;8808;52.478;13.378;2023-07-24T12:39:43;4.68;;;2.10;;
17380;SDS011;8808;52.478;13.378;2023-07-24T12:42:10;6.20;;;2.40;;
17380;SDS011;8808;52.478;13.378;2023-07-24T12:44:39;12.63;;;2.38;;
17380;SDS011;8808;52.478;13.378;2023-07-24T12:47:09;5.60;;;2.05;;
17380;SDS011;8808;52.478;13.378;2023-07-24T12:49:37;7.72;;;2.35;;
17380;SDS011;8808;52.478;13.378;2023-07-24T12:52:05;7.32;;;2.22;;
17380;SDS011;8808;52.478;13.378;2023-07-24T12:54:32;7.35;;;3.03;;
17380;SDS011;8808;52.478;13.378;2023-07-24T12:56:59;4.20;;;2.38;;
17380;SDS011;8808;52.478;13.378;2023-07-24T12:59:27;6.20;;;2.45;;
17380;SDS011;8808;52.478;13.378;2023-07-24T13:01:53;6.00;;;2.10;;
17380;SDS011;8808;52.478;13.378;2023-07-24T13:04:22;9.52;;;2.60;;
17380;SDS011;8808;52.478;13.378;2023-07-24T13:06:50;4.82;;;2.13;;
17380;SDS011;8808;52.478;13.378;2023-07-24T13:09:17;4.13;;;2.40;;
17380;SDS011;8808;52.478;13.378;2023-07-24T13:11:44;5.78;;;2.30;;
17380;SDS011;8808;52.478;13.378;2023-07-24T13:14:13;8.60;;;2.50;;
17380;SDS011;8808;52.478;13.378;2023-07-24T13:16:40;3.63;;;2.17;;
17380;SDS011;8808;52.478;13.378;2023-07-24T13:19:08;3.72;;;2.38;;
17380;SDS011;8808;52.478;13.378;2023-07-24T13:21:36;8.25;;;2.40;;
17380;SDS011;8808;52.478;13.378;2023-07-24T13:24:05;4.18;;;2.25;;
17380;SDS011;8808;52.478;13.378;2023-07-24T13:26:32;4.28;;;2.10;;
17380;SDS011;8808;52.478;13.378;2023-07-24T13:28:59;5.07;;;2.22;;
17380;SDS011;8808;52.478;13.378;2023-07-24T13:31:26;4.38;;;1.95;;
17380;SDS011;8808;52.478;13.378;2023-07-24T13:33:54;3.67;;;1.90;;
17380;SDS011;8808;52.478;13.378;2023-07-24T13:36:21;3.67;;;1.98;;
17380;SDS011;8808;52.478;13.378;2023-07-24T13:38:49;4.63;;;2.20;;
17380;SDS011;8808;52.478;13.378;2023-07-24T13:41:17;7.90;;;2.20;;
17380;SDS011;8808;52.478;13.378;2023-07-24T13:43:44;4.28;;;1.92;;
17380;SDS011;8808;52.478;13.378;2023-07-24T13:46:10;3.65;;;1.50;;
17380;SDS011;8808;52.478;13.378;2023-07-24T13:48:38;4.65;;;1.95;;
17380;SDS011;8808;52.478;13.378;2023-07-24T13:51:04;3.67;;;2.10;;
17380;SDS011;8808;52.478;13.378;2023-07-24T13:53:31;6.15;;;2.10;;
17380;SDS011;8808;52.478;13.378;2023-07-24T13:56:00;6.45;;;2.20;;
17380;SDS011;8808;52.478;13.378;2023-07-24T13:58:27;5.97;;;2.17;;
17380;SDS011;8808;52.478;13.378;2023-07-24T14:00:54;8.13;;;2.20;;
17380;SDS011;8808;52.478;13.378;2023-07-24T14:03:21;5.40;;;2.30;;
17380;SDS011;8808;52.478;13.378;2023-07-24T14:05:51;3.53;;;2.42;;
17380;SDS011;8808;52.478;13.378;2023-07-24T14:08:18;7.45;;;2.10;;
17380;SDS011;8808;52.478;13.378;2023-07-24T14:10:45;6.35;;;2.53;;
17380;SDS011;8808;52.478;13.378;2023-07-24T14:13:13;4.40;;;2.15;;
17380;SDS011;8808;52.478;13.378;2023-07-24T14:15:40;6.55;;;2.30;;
17380;SDS011;8808;52.478;13.378;2023-07-24T14:18:07;4.97;;;2.35;;
17380;SDS011;8808;52.478;13.378;2023-07-24T14:20:34;6.93;;;2.40;;
17380;SDS011;8808;52.478;13.378;2023-07-24T14:23:02;3.38;;;2.08;;
17380;SDS011;8808;52.478;13.378;2023-07-24T14:25:29;4.28;;;1.80;;
17380;SDS011;8808;52.478;13.378;2023-07-24T14:27:56;7.38;;;2.30;;
17380;SDS011;8808;52.478;13.378;2023-07-24T14:30:24;5.32;;;2.22;;
17380;SDS011;8808;52.478;13.378;2023-07-24T14:32:51;4.20;;;2.00;;
17380;SDS011;8808;52.478;13.378;2023-07-24T14:35:18;8.27;;;2.33;;
17380;SDS011;8808;52.478;13.378;2023-07-24T14:37:45;5.07;;;2.20;;
17380;SDS011;8808;52.478;13.378;2023-07-24T14:40:12;6.35;;;2.72;;
17380;SDS011;8808;52.478;13.378;2023-07-24T14:42:39;4.55;;;2.47;;
17380;SDS011;8808;52.478;13.378;2023-07-24T14:45:06;3.47;;;1.92;;
17380;SDS011;8808;52.478;13.378;2023-07-24T14:47:35;4.05;;;2.38;;
17380;SDS011;8808;52.478;13.378;2023-07-24T14:50:02;6.05;;;2.25;;
17380;SDS011;8808;52.478;13.378;2023-07-24T14:52:29;5.63;;;2.40;;
17380;SDS011;8808;52.478;13.378;2023-07-24T14:54:56;4.32;;;2.17;;